<?xml version='1.0' encoding='UTF-8'?><gpx version="1.1" creator="JPX - https://github.com/jenetics/jpx" xmlns="http://www.topografix.com/GPX/1/1"><trk><trkseg><trkpt lat="44.930879470160086" lon="3.2140308675470837"><ele>878.2857142857143</ele><time>2026-03-28T14:00:54Z</time></trkpt><trkpt lat="44.93082825376175" lon="3.213964043115381"><ele>879.5714285714286</ele><time>2026-03-28T14:02:13Z</time></trkpt><trkpt lat="44.93075785773264" lon="3.213952027299407"><ele>880.8571428571429</ele><time>2026-03-28T14:03:02Z</time></trkpt><trkpt lat="44.93069284735664" lon="3.2139379335411555"><ele>882.1428571428571</ele><time>2026-03-28T14:03:48Z</time></trkpt><trkpt lat="44.93064472839207" lon="3.213863675825835"><ele>883.4285714285714</ele><time>2026-03-28T14:04:23Z</time></trkpt><trkpt lat="44.930581328425426" lon="3.213875198264433"><ele>884.7142857142858</ele><time>2026-03-28T14:04:31Z</time></trkpt><trkpt lat="44.9305182342886" lon="3.213840191665008"><ele>886.0</ele><time>2026-03-28T14:04:37Z</time></trkpt><trkpt lat="44.93044866864932" lon="3.21384388839726"><ele>886.0</ele><time>2026-03-28T14:04:54Z</time></trkpt><trkpt lat="44.93037764384856" lon="3.2137795469870833"><ele>886.0</ele><time>2026-03-28T14:07:06Z</time></trkpt><trkpt lat="44.93032378266778" lon="3.213725434430849"><ele>886.0</ele><time>2026-03-28T14:07:25Z</time></trkpt></trkseg><trkseg><trkpt lat="44.9301730845922" lon="3.2136340924636477"><ele>886.0</ele><time>2026-03-28T14:35:40.159Z</time></trkpt><trkpt lat="44.9301902668927" lon="3.213741789816536"><ele>886.0</ele><time>2026-03-28T14:37:07.001Z</time></trkpt><trkpt lat="44.9302523705922" lon="3.2137668896984812"><ele>886.0</ele><time>2026-03-28T14:38:06Z</time></trkpt><trkpt lat="44.93025231999697" lon="3.2138587849264226"><ele>886.0</ele><time>2026-03-28T14:40:32Z</time></trkpt><trkpt lat="44.93026616114902" lon="3.2139464336312766"><ele>886.0</ele><time>2026-03-28T14:41:46Z</time></trkpt><trkpt lat="44.93028745033652" lon="3.214053987085047"><ele>886.0</ele><time>2026-03-28T14:41:49Z</time></trkpt><trkpt lat="44.93029318416828" lon="3.2141622396880187"><ele>886.0</ele><time>2026-03-28T14:41:51Z</time></trkpt><trkpt lat="44.93032850073109" lon="3.2142606924444395"><ele>884.7142857142858</ele><time>2026-03-28T14:42:47Z</time></trkpt><trkpt lat="44.93039624915364" lon="3.2143040436677874"><ele>883.4285714285714</ele><time>2026-03-28T14:42:59Z</time></trkpt><trkpt lat="44.93044443807045" lon="3.214366277824096"><ele>882.1428571428571</ele><time>2026-03-28T14:43:02Z</time></trkpt><trkpt lat="44.93048041323326" lon="3.214448526196447"><ele>880.8571428571429</ele><time>2026-03-28T14:43:09Z</time></trkpt><trkpt lat="44.93040892324879" lon="3.214455485328415"><ele>879.5714285714286</ele><time>2026-03-28T14:43:48Z</time></trkpt><trkpt lat="44.93035329205675" lon="3.2144097778946223"><ele>878.2857142857143</ele><time>2026-03-28T14:43:57Z</time></trkpt><trkpt lat="44.930295445593025" lon="3.2143595512333594"><ele>877.0</ele><time>2026-03-28T14:45:00Z</time></trkpt><trkpt lat="44.9302170913644" lon="3.2143073406887748"><ele>876.9999999999999</ele><time>2026-03-28T14:45:09Z</time></trkpt><trkpt lat="44.930151143347054" lon="3.2143107239161672"><ele>877.0</ele><time>2026-03-28T14:45:13Z</time></trkpt><trkpt lat="44.930227237183736" lon="3.214425318158938"><ele>877.0</ele><time>2026-03-28T14:45:40Z</time></trkpt><trkpt lat="44.93027759968809" lon="3.2144827321191958"><ele>877.0</ele><time>2026-03-28T14:45:42Z</time></trkpt><trkpt lat="44.93034401427272" lon="3.2145978560677495"><ele>876.9999999999999</ele><time>2026-03-28T14:46:59Z</time></trkpt><trkpt lat="44.93038841542402" lon="3.214706763805019"><ele>877.0</ele><time>2026-03-28T14:47:08Z</time></trkpt><trkpt lat="44.93045985720203" lon="3.214774036661292"><ele>879.4999999999999</ele><time>2026-03-28T14:47:11Z</time></trkpt><trkpt lat="44.93050831283471" lon="3.214861826709275"><ele>882.0</ele><time>2026-03-28T14:47:13Z</time></trkpt><trkpt lat="44.930543752219144" lon="3.214953389027423"><ele>884.5</ele><time>2026-03-28T14:47:15Z</time></trkpt><trkpt lat="44.93059105392153" lon="3.2150547813483943"><ele>887.0</ele><time>2026-03-28T14:47:17Z</time></trkpt><trkpt lat="44.93059832954542" lon="3.2151692333069146"><ele>889.4999999999999</ele><time>2026-03-28T14:47:20Z</time></trkpt><trkpt lat="44.93053812075352" lon="3.2151965446776276"><ele>892.0</ele><time>2026-03-28T14:47:25Z</time></trkpt><trkpt lat="44.93046831655242" lon="3.215284248924022"><ele>892.0</ele><time>2026-03-28T14:47:29Z</time></trkpt><trkpt lat="44.93040443363469" lon="3.2153513538951346"><ele>892.0</ele><time>2026-03-28T14:47:32Z</time></trkpt><trkpt lat="44.930340741360354" lon="3.215348167668481"><ele>892.0</ele><time>2026-03-28T14:47:35Z</time></trkpt><trkpt lat="44.93027128059889" lon="3.2153099078845915"><ele>892.0</ele><time>2026-03-28T14:47:38Z</time></trkpt><trkpt lat="44.93022856842761" lon="3.2153996667109026"><ele>892.0</ele><time>2026-03-28T14:47:40Z</time></trkpt><trkpt lat="44.930162479478575" lon="3.2154209124744324"><ele>892.0</ele><time>2026-03-28T14:47:42Z</time></trkpt><trkpt lat="44.93008918624925" lon="3.215445125359041"><ele>892.0</ele><time>2026-03-28T14:47:44Z</time></trkpt><trkpt lat="44.93002617986187" lon="3.215509946822203"><ele>914.0</ele><time>2026-03-28T14:47:46Z</time></trkpt><trkpt lat="44.92993482737936" lon="3.215590656102629"><ele>914.0</ele><time>2026-03-28T14:47:48Z</time></trkpt><trkpt lat="44.92985988929341" lon="3.2156409613930728"><ele>914.0</ele><time>2026-03-28T14:47:50Z</time></trkpt></trkseg></trk></gpx>